createdAt,value
2023-04-15T00:03:37.036Z,9.88
2023-04-15T00:08:41.110Z,9.84
2023-04-15T00:13:46.132Z,9.77
2023-04-15T00:18:49.838Z,9.73
2023-04-15T00:23:53.830Z,9.68
2023-04-15T00:28:59.230Z,9.63
2023-04-15T00:34:03.702Z,9.55
2023-04-15T00:39:07.381Z,9.52
2023-04-15T00:44:12.582Z,9.49
2023-04-15T00:49:16.315Z,9.43
2023-04-15T00:54:20.035Z,9.37
2023-04-15T00:59:25.597Z,9.30
2023-04-15T01:04:29.500Z,9.21
2023-04-15T01:09:33.789Z,9.17
2023-04-15T01:14:38.983Z,9.08
2023-04-15T01:19:43.293Z,8.99
2023-04-15T01:24:57.020Z,9.01
2023-04-15T01:30:02.432Z,8.98
2023-04-15T01:35:09.109Z,8.95
2023-04-15T01:40:13.881Z,8.95
2023-04-15T01:45:19.209Z,8.92
2023-04-15T01:50:22.913Z,8.93
2023-04-15T01:55:27.081Z,8.98
2023-04-15T02:00:32.702Z,8.98
2023-04-15T02:05:36.620Z,9.05
2023-04-15T02:10:40.850Z,9.08
2023-04-15T02:15:49.553Z,9.11
2023-04-15T02:20:56.672Z,9.12
2023-04-15T02:26:00.434Z,9.08
2023-04-15T02:31:09.671Z,9.08
2023-04-15T02:36:13.459Z,9.11
2023-04-15T02:41:17.432Z,9.12
2023-04-15T02:46:23.573Z,9.14
2023-04-15T02:51:27.461Z,9.12
2023-04-15T02:56:31.306Z,9.14
2023-04-15T03:01:36.530Z,9.15
2023-04-15T03:06:40.296Z,9.15
2023-04-15T03:11:45.179Z,9.11
2023-04-15T03:16:50.652Z,9.03
2023-04-15T03:21:54.738Z,9.05
2023-04-15T03:26:58.881Z,9.02
2023-04-15T03:32:04.065Z,8.98
2023-04-15T03:37:09.123Z,8.88
2023-04-15T03:42:12.832Z,8.88
2023-04-15T03:47:17.900Z,8.85
2023-04-15T03:52:21.674Z,8.84
2023-04-15T03:57:25.580Z,8.77
2023-04-15T04:02:30.886Z,8.74
2023-04-15T04:07:34.746Z,8.66
2023-04-15T04:12:38.552Z,8.63
2023-04-15T04:17:43.813Z,8.59
2023-04-15T04:22:47.615Z,8.52
2023-04-15T04:27:51.505Z,8.45
2023-04-15T04:32:56.592Z,8.24
2023-04-15T04:38:00.333Z,8.21
2023-04-15T04:43:04.191Z,8.18
2023-04-15T04:48:10.561Z,8.06
2023-04-15T04:53:14.533Z,8.01
2023-04-15T04:58:18.273Z,7.91
2023-04-15T05:03:23.491Z,7.90
2023-04-15T05:08:27.475Z,7.87
2023-04-15T05:13:31.562Z,7.81
2023-04-15T05:18:36.700Z,7.71
2023-04-15T05:23:40.993Z,7.70
2023-04-15T05:28:44.765Z,7.66
2023-04-15T05:33:49.806Z,7.62
2023-04-15T05:38:53.452Z,7.60
2023-04-15T05:43:57.271Z,7.56
2023-04-15T05:49:02.497Z,7.59
2023-04-15T05:54:06.836Z,7.60
2023-04-15T05:59:10.544Z,7.59
2023-04-15T06:04:15.673Z,7.64
2023-04-15T06:09:19.486Z,7.71
2023-04-15T06:14:23.243Z,7.78
2023-04-15T06:19:28.392Z,7.83
2023-04-15T06:24:33.115Z,7.91
2023-04-15T06:29:36.862Z,7.99
2023-04-15T06:34:42.075Z,8.11
2023-04-15T06:39:45.874Z,8.19
2023-04-15T06:44:49.801Z,8.32
2023-04-15T06:49:54.879Z,8.47
2023-04-15T06:54:59.528Z,8.58
2023-04-15T07:00:05.741Z,8.69
2023-04-15T07:05:11.349Z,8.83
2023-04-15T07:10:15.891Z,8.98
2023-04-15T07:15:19.631Z,9.12
2023-04-15T07:20:24.778Z,9.29
2023-04-15T07:25:28.588Z,9.43
2023-04-15T07:30:32.291Z,9.56
2023-04-15T07:35:37.845Z,9.68
2023-04-15T07:40:42.329Z,9.83
2023-04-15T07:45:46.156Z,10.01
2023-04-15T07:50:51.275Z,10.16
2023-04-15T07:55:54.958Z,10.34
2023-04-15T08:00:58.791Z,10.50
2023-04-15T08:06:03.986Z,10.69
2023-04-15T08:11:07.740Z,10.88
2023-04-15T08:16:18.581Z,11.09
2023-04-15T08:21:23.934Z,11.30
2023-04-15T08:26:27.720Z,11.50
2023-04-15T08:31:31.601Z,11.67
2023-04-15T08:36:36.850Z,11.89
2023-04-15T08:41:43.130Z,12.04
2023-04-15T08:46:47.595Z,12.14
2023-04-15T08:51:52.943Z,12.30
2023-04-15T08:56:58.730Z,12.50
2023-04-15T09:02:03.532Z,12.69
2023-04-15T09:07:08.735Z,12.83
2023-04-15T09:12:13.227Z,13.13
2023-04-15T09:17:21.141Z,13.40
2023-04-15T09:22:33.330Z,13.71
2023-04-15T09:27:38.408Z,14.10
2023-04-15T09:32:51.312Z,14.44
2023-04-15T09:38:04.644Z,14.73
2023-04-15T09:43:09.652Z,15.07
2023-04-15T09:48:19.270Z,15.58
2023-04-15T09:53:26.180Z,16.31
2023-04-15T09:58:31.762Z,16.90
2023-04-15T10:03:37.620Z,17.43
2023-04-15T10:08:43.167Z,17.81
2023-04-15T10:13:50.583Z,18.18
2023-04-15T10:18:57.108Z,18.28
2023-04-15T10:24:04.740Z,18.13
2023-04-15T10:29:10.555Z,18.87
2023-04-15T10:34:16.054Z,19.28
2023-04-15T10:39:45.298Z,19.63
2023-04-15T10:44:51.674Z,20.11
2023-04-15T10:49:59.512Z,20.43
2023-04-15T10:55:15.710Z,20.38
2023-04-15T11:00:20.533Z,19.65
2023-04-15T11:05:44.997Z,19.17
2023-04-15T11:10:57.676Z,19.74
2023-04-15T11:16:02.960Z,20.32
2023-04-15T11:21:09.415Z,20.60
2023-04-15T11:26:15.423Z,21.19
2023-04-15T11:31:20.189Z,21.73
2023-04-15T11:36:26.498Z,22.05
2023-04-15T11:41:31.753Z,21.93
2023-04-15T11:46:35.475Z,22.39
2023-04-15T11:51:39.188Z,21.60
2023-04-15T11:56:51.734Z,22.37
2023-04-15T12:01:56.107Z,22.49
2023-04-15T12:07:06.588Z,22.06
2023-04-15T12:12:12.486Z,22.34
2023-04-15T12:17:17.339Z,22.78
2023-04-15T12:22:22.277Z,23.71
2023-04-15T12:27:29.712Z,23.32
2023-04-15T12:32:37.111Z,23.11
2023-04-15T12:37:41.026Z,22.72
2023-04-15T12:42:46.430Z,21.48
2023-04-15T12:47:50.428Z,22.22
2023-04-15T12:52:54.184Z,22.95
2023-04-15T12:57:59.346Z,22.18
2023-04-15T13:03:06.207Z,22.21
2023-04-15T13:08:10.750Z,21.88
2023-04-15T13:13:15.928Z,21.83
2023-04-15T13:18:20.050Z,22.02
2023-04-15T13:23:23.830Z,22.29
2023-04-15T13:28:28.939Z,22.65
2023-04-15T13:33:32.633Z,22.59
2023-04-15T13:38:36.319Z,23.08
2023-04-15T13:43:41.524Z,22.64
2023-04-15T13:48:45.273Z,23.49
2023-04-15T13:53:48.954Z,22.14
2023-04-15T13:58:54.871Z,22.87
2023-04-15T14:03:58.739Z,23.27
2023-04-15T14:09:02.701Z,24.43
2023-04-15T14:14:07.802Z,24.78
2023-04-15T14:19:11.608Z,25.22
2023-04-15T14:24:15.291Z,25.01
2023-04-15T14:29:20.460Z,25.76
2023-04-15T14:34:25.319Z,25.69
2023-04-15T14:39:29.109Z,24.66
2023-04-15T14:44:34.266Z,23.89
2023-04-15T14:49:38.248Z,24.82
2023-04-15T14:54:41.919Z,25.48
2023-04-15T14:59:46.996Z,25.21
2023-04-15T15:04:50.765Z,25.58
2023-04-15T15:09:54.727Z,24.43
2023-04-15T15:15:00.522Z,25.42
2023-04-15T15:20:06.600Z,24.68
2023-04-15T15:25:10.540Z,24.74
2023-04-15T15:30:15.847Z,24.96
2023-04-15T15:35:19.608Z,24.45
2023-04-15T15:40:23.670Z,24.71
2023-04-15T15:45:29.176Z,23.46
2023-04-15T15:50:33.078Z,23.60
2023-04-15T15:55:36.941Z,23.55
2023-04-15T16:00:42.663Z,23.58
2023-04-15T16:05:47.139Z,22.64
2023-04-15T16:10:51.084Z,22.03
2023-04-15T16:15:56.335Z,22.09
2023-04-15T16:21:00.331Z,22.21
2023-04-15T16:26:04.242Z,22.33
2023-04-15T16:31:09.704Z,22.04
2023-04-15T16:36:13.753Z,21.32
2023-04-15T16:41:18.602Z,21.15
2023-04-15T16:46:23.929Z,20.35
2023-04-15T16:51:29.104Z,19.71
2023-04-15T16:56:33.040Z,19.45
2023-04-15T17:01:38.433Z,18.96
2023-04-15T17:06:42.236Z,17.82
2023-04-15T17:11:46.182Z,17.61
2023-04-15T17:16:51.410Z,17.04
2023-04-15T17:21:55.387Z,17.22
2023-04-15T17:26:59.645Z,16.54
2023-04-15T17:32:06.205Z,16.25
2023-04-15T17:37:10.137Z,16.15
2023-04-15T17:42:14.383Z,16.06
2023-04-15T17:47:19.888Z,15.67
2023-04-15T17:52:23.623Z,15.19
2023-04-15T17:57:27.362Z,15.20
2023-04-15T18:02:34.581Z,14.68
2023-04-15T18:07:40.682Z,14.33
2023-04-15T18:12:44.473Z,14.21
2023-04-15T18:17:50.020Z,14.24
2023-04-15T18:22:53.924Z,14.24
2023-04-15T18:27:57.806Z,14.26
2023-04-15T18:33:03.173Z,14.30
2023-04-15T18:38:07.173Z,14.23
2023-04-15T18:43:11.194Z,13.88
2023-04-15T18:48:17.618Z,13.39
2023-04-15T18:53:21.799Z,13.47
2023-04-15T18:58:25.736Z,13.15
2023-04-15T19:03:31.752Z,12.98
2023-04-15T19:08:35.764Z,12.57
2023-04-15T19:13:39.753Z,12.48
2023-04-15T19:18:44.954Z,12.36
2023-04-15T19:23:50.061Z,12.32
2023-04-15T19:28:54.213Z,12.08
2023-04-15T19:33:59.822Z,12.03
2023-04-15T19:39:04.138Z,11.97
2023-04-15T19:44:08.352Z,11.98
2023-04-15T19:49:13.706Z,12.10
2023-04-15T19:54:17.768Z,12.11
2023-04-15T19:59:21.868Z,12.10
2023-04-15T20:04:27.736Z,12.02
2023-04-15T20:09:31.924Z,11.95
2023-04-15T20:14:35.966Z,11.87
2023-04-15T20:19:41.253Z,11.87
2023-04-15T20:24:45.286Z,11.80
2023-04-15T20:29:49.537Z,11.76
2023-04-15T20:34:54.966Z,11.64
2023-04-15T20:39:58.884Z,11.70
2023-04-15T20:45:02.949Z,11.57
2023-04-15T20:50:10.020Z,11.49
2023-04-15T20:55:13.958Z,11.32
2023-04-15T21:00:17.856Z,11.42
2023-04-15T21:05:23.053Z,11.25
2023-04-15T21:10:27.328Z,11.02
2023-04-15T21:15:31.303Z,11.07
2023-04-15T21:20:36.621Z,11.07
2023-04-15T21:25:40.679Z,11.09
2023-04-15T21:30:45.722Z,10.92
2023-04-15T21:35:50.992Z,10.94
2023-04-15T21:40:55.277Z,10.79
2023-04-15T21:46:22.157Z,10.82
2023-04-15T21:51:24.352Z,10.75
2023-04-15T21:56:28.254Z,10.71
2023-04-15T22:01:32.280Z,10.57
2023-04-15T22:06:37.674Z,10.56
2023-04-15T22:11:41.545Z,10.61
2023-04-15T22:16:45.717Z,10.64
2023-04-15T22:21:51.522Z,10.54
2023-04-15T22:26:55.554Z,10.50
2023-04-15T22:31:59.270Z,10.47
2023-04-15T22:37:04.298Z,10.45
2023-04-15T22:42:08.029Z,10.44
2023-04-15T22:47:11.853Z,10.42
2023-04-15T22:52:29.428Z,10.31
2023-04-15T22:57:34.507Z,10.32
2023-04-15T23:02:38.261Z,10.20
2023-04-15T23:07:43.423Z,10.26
2023-04-15T23:12:47.548Z,10.14
2023-04-15T23:17:51.292Z,10.20
2023-04-15T23:22:56.408Z,10.15
2023-04-15T23:28:00.295Z,10.10
2023-04-15T23:33:04.406Z,10.10
2023-04-15T23:38:09.551Z,10.04
2023-04-15T23:43:13.281Z,9.88
2023-04-15T23:48:16.997Z,9.80
2023-04-15T23:53:22.336Z,9.80
2023-04-15T23:58:26.100Z,9.80
